Time,TemperatureF,DewpointF,PressureIn,WindDirection,WindDirectionDegrees,WindSpeedMPH,WindSpeedGustMPH,Humidity,HourlyPrecipIn,Conditions,Clouds,dailyrainin,SoftwareType,DateUTC
2013-02-14 00:00:00,31.0,27.0,29.68,WSW,245,2.0,0.0,85,0.00,,OVC003,0.00,VWS V14.01,2013-02-14 05:00:00,
2013-02-14 00:02:00,30.9,26.9,29.68,WSW,246,2.0,0.0,85,0.00,,OVC003,0.00,VWS V14.01,2013-02-14 05:02:00,
2013-02-14 00:05:00,30.8,26.8,29.68,WSW,246,2.0,0.0,85,0.00,,OVC003,0.00,VWS V14.01,2013-02-14 05:05:00,
2013-02-14 00:11:00,30.7,26.7,29.68,WSW,245,2.0,0.0,85,0.00,,OVC003,0.00,VWS V14.01,2013-02-14 05:11:00,
2013-02-14 00:13:00,30.6,26.6,29.68,WSW,246,2.0,0.0,85,0.00,,OVC003,0.00,VWS V14.01,2013-02-14 05:13:00,
2013-02-14 00:18:00,30.5,26.5,29.68,WSW,246,2.0,0.0,85,0.00,,OVC003,0.00,VWS V14.01,2013-02-14 05:18:00,
2013-02-14 00:23:00,30.5,26.5,29.68,WSW,245,2.0,0.0,85,0.00,,OVC003,0.00,VWS V14.01,2013-02-14 05:23:00,
2013-02-14 00:28:00,30.5,26.8,29.68,WSW,246,2.0,0.0,86,0.00,,OVC003,0.00,VWS V14.01,2013-02-14 05:28:00,
2013-02-14 00:33:00,30.5,26.8,29.68,WSW,246,2.0,0.0,86,0.00,,OVC003,0.00,VWS V14.01,2013-02-14 05:33:00,
2013-02-14 00:38:00,30.5,26.8,29.68,WSW,245,2.0,0.0,86,0.00,,OVC003,0.00,VWS V14.01,2013-02-14 05:38:00,
2013-02-14 00:43:00,30.6,26.9,29.68,WSW,246,2.0,0.0,86,0.00,,OVC003,0.00,VWS V14.01,2013-02-14 05:43:00,
2013-02-14 00:48:00,30.6,26.9,29.68,WSW,245,2.0,0.0,86,0.00,,OVC003,0.00,VWS V14.01,2013-02-14 05:48:00,
2013-02-14 00:53:00,30.7,27.0,29.68,WSW,245,2.0,0.0,86,0.00,,OVC003,0.00,VWS V14.01,2013-02-14 05:53:00,
2013-02-14 00:58:00,30.6,26.9,29.68,WSW,246,2.0,0.0,86,0.00,,OVC003,0.00,VWS V14.01,2013-02-14 05:58:00,
2013-02-14 01:03:00,30.6,26.9,29.68,WSW,246,2.0,0.0,86,0.00,,OVC003,0.00,VWS V14.01,2013-02-14 06:03:00,
2013-02-14 01:08:00,30.5,26.8,29.68,WSW,246,2.0,0.0,86,0.00,,OVC003,0.00,VWS V14.01,2013-02-14 06:08:00,
2013-02-14 01:13:00,30.3,26.6,29.68,WSW,245,2.0,0.0,86,0.00,,OVC003,0.00,VWS V14.01,2013-02-14 06:13:00,
2013-02-14 01:18:00,30.2,26.5,29.68,WSW,245,2.0,0.0,86,0.00,,OVC003,0.00,VWS V14.01,2013-02-14 06:18:00,
2013-02-14 01:23:00,30.1,26.4,29.68,WSW,245,2.0,0.0,86,0.00,,OVC003,0.00,VWS V14.01,2013-02-14 06:23:00,
2013-02-14 01:28:00,30.1,26.4,29.68,WSW,246,2.0,0.0,86,0.00,,OVC003,0.00,VWS V14.01,2013-02-14 06:28:00,
2013-02-14 01:33:00,30.2,26.5,29.67,WSW,246,2.0,0.0,86,0.00,,OVC003,0.00,VWS V14.01,2013-02-14 06:33:00,
2013-02-14 01:38:00,30.2,26.8,29.67,WSW,246,2.0,0.0,87,0.00,,OVC003,0.00,VWS V14.01,2013-02-14 06:38:00,
2013-02-14 01:43:00,30.3,26.9,29.67,WSW,246,2.0,0.0,87,0.00,,OVC003,0.00,VWS V14.01,2013-02-14 06:43:00,
2013-02-14 01:48:00,30.3,26.6,29.68,WSW,246,2.0,0.0,86,0.00,,OVC003,0.00,VWS V14.01,2013-02-14 06:48:00,
2013-02-14 01:53:00,30.4,26.7,29.68,WSW,246,2.0,0.0,86,0.00,,OVC003,0.00,VWS V14.01,2013-02-14 06:53:00,
2013-02-14 01:58:00,30.4,26.7,29.68,WSW,246,2.0,0.0,86,0.00,,OVC003,0.00,VWS V14.01,2013-02-14 06:58:00,
2013-02-14 02:03:00,30.5,26.8,29.68,WSW,245,2.0,0.0,86,0.00,,OVC003,0.00,VWS V14.01,2013-02-14 07:03:00,
2013-02-14 02:08:00,30.5,26.8,29.68,WSW,246,2.0,0.0,86,0.00,,OVC003,0.00,VWS V14.01,2013-02-14 07:08:00,
2013-02-14 02:13:00,30.3,26.6,29.68,WSW,245,2.0,0.0,86,0.00,,OVC003,0.00,VWS V14.01,2013-02-14 07:13:00,
2013-02-14 02:18:00,30.1,26.4,29.67,WSW,246,2.0,0.0,86,0.00,,OVC003,0.00,VWS V14.01,2013-02-14 07:18:00,
2013-02-14 02:23:00,29.9,26.2,29.67,WSW,246,2.0,0.0,86,0.00,,OVC003,0.00,VWS V14.01,2013-02-14 07:23:00,
2013-02-14 02:28:00,29.8,26.1,29.67,WSW,245,2.0,0.0,86,0.00,,OVC003,0.00,VWS V14.01,2013-02-14 07:28:00,
2013-02-14 02:33:00,29.5,25.8,29.67,WSW,246,2.0,0.0,86,0.00,,OVC003,0.00,VWS V14.01,2013-02-14 07:33:00,
2013-02-14 02:38:00,29.3,25.9,29.67,WSW,246,2.0,0.0,87,0.00,,OVC003,0.00,VWS V14.01,2013-02-14 07:38:00,
2013-02-14 02:43:00,29.2,25.8,29.67,WSW,246,2.0,0.0,87,0.00,,OVC003,0.00,VWS V14.01,2013-02-14 07:43:00,
2013-02-14 02:48:00,29.0,25.6,29.67,WSW,246,2.0,0.0,87,0.00,,OVC003,0.00,VWS V14.01,2013-02-14 07:48:00,
2013-02-14 02:53:00,28.9,25.5,29.67,WSW,245,2.0,0.0,87,0.00,,OVC003,0.00,VWS V14.01,2013-02-14 07:53:00,
2013-02-14 02:58:00,28.8,25.4,29.67,WSW,245,2.0,0.0,87,0.00,,OVC003,0.00,VWS V14.01,2013-02-14 07:58:00,
2013-02-14 03:03:00,28.6,25.2,29.67,WSW,246,2.0,0.0,87,0.00,,OVC003,0.00,VWS V14.01,2013-02-14 08:03:00,
2013-02-14 03:08:00,28.6,25.5,29.67,WSW,246,2.0,0.0,88,0.00,,OVC003,0.00,VWS V14.01,2013-02-14 08:08:00,
2013-02-14 03:13:00,28.7,25.6,29.67,WSW,246,2.0,0.0,88,0.00,,OVC003,0.00,VWS V14.01,2013-02-14 08:13:00,
2013-02-14 03:18:00,28.7,25.6,29.67,WSW,245,2.0,0.0,88,0.00,,OVC003,0.00,VWS V14.01,2013-02-14 08:18:00,
2013-02-14 03:23:00,28.8,25.7,29.67,WSW,245,2.0,0.0,88,0.00,,OVC003,0.00,VWS V14.01,2013-02-14 08:23:00,
2013-02-14 03:28:00,28.9,25.8,29.67,WSW,246,2.0,0.0,88,0.00,,OVC003,0.00,VWS V14.01,2013-02-14 08:28:00,
2013-02-14 03:33:00,29.0,25.9,29.67,WSW,246,2.0,0.0,88,0.00,,OVC003,0.00,VWS V14.01,2013-02-14 08:33:00,
2013-02-14 03:39:00,29.1,26.0,29.67,WSW,246,2.0,0.0,88,0.00,,OVC003,0.00,VWS V14.01,2013-02-14 08:39:00,
2013-02-14 03:44:00,29.1,26.0,29.67,WSW,246,2.0,0.0,88,0.00,,OVC003,0.00,VWS V14.01,2013-02-14 08:44:00,
2013-02-14 03:49:00,29.1,26.0,29.67,WSW,246,2.0,0.0,88,0.00,,OVC003,0.00,VWS V14.01,2013-02-14 08:49:00,
2013-02-14 03:54:00,29.1,26.0,29.67,WSW,245,2.0,0.0,88,0.00,,OVC003,0.00,VWS V14.01,2013-02-14 08:54:00,
2013-02-14 03:59:00,29.2,26.1,29.67,WSW,245,2.0,0.0,88,0.00,,OVC003,0.00,VWS V14.01,2013-02-14 08:59:00,
2013-02-14 04:04:00,29.2,26.1,29.66,WSW,246,2.0,0.0,88,0.00,,OVC003,0.00,VWS V14.01,2013-02-14 09:04:00,
2013-02-14 04:09:00,29.0,25.9,29.66,WSW,245,2.0,0.0,88,0.00,,OVC003,0.00,VWS V14.01,2013-02-14 09:09:00,
2013-02-14 04:14:00,28.9,25.8,29.66,WSW,245,2.0,0.0,88,0.00,,OVC003,0.00,VWS V14.01,2013-02-14 09:14:00,
2013-02-14 04:19:00,28.6,25.5,29.66,WSW,246,2.0,0.0,88,0.00,,OVC003,0.00,VWS V14.01,2013-02-14 09:19:00,
2013-02-14 04:24:00,28.4,25.3,29.66,WSW,246,2.0,0.0,88,0.00,,OVC003,0.00,VWS V14.01,2013-02-14 09:24:00,
2013-02-14 04:29:00,28.3,25.2,29.66,WSW,246,2.0,0.0,88,0.00,,OVC003,0.00,VWS V14.01,2013-02-14 09:29:00,
2013-02-14 04:34:00,28.2,25.1,29.66,WSW,246,2.0,0.0,88,0.00,,OVC003,0.00,VWS V14.01,2013-02-14 09:34:00,
2013-02-14 04:39:00,28.1,25.3,29.66,WSW,246,2.0,0.0,89,0.00,,OVC003,0.00,VWS V14.01,2013-02-14 09:39:00,
2013-02-14 04:44:00,28.1,25.3,29.66,WSW,246,3.0,3.0,89,0.00,,OVC003,0.00,VWS V14.01,2013-02-14 09:44:00,
2013-02-14 04:49:00,28.1,25.3,29.66,WSW,246,2.0,0.0,89,0.00,,OVC003,0.00,VWS V14.01,2013-02-14 09:49:00,
2013-02-14 04:54:00,28.2,25.4,29.66,WSW,245,2.0,0.0,89,0.00,,OVC003,0.00,VWS V14.01,2013-02-14 09:54:00,
2013-02-14 04:59:00,28.3,25.5,29.66,WSW,246,2.0,0.0,89,0.00,,OVC003,0.00,VWS V14.01,2013-02-14 09:59:00,
2013-02-14 05:04:00,28.4,25.6,29.66,WSW,246,2.0,0.0,89,0.00,,OVC003,0.00,VWS V14.01,2013-02-14 10:04:00,
2013-02-14 05:09:00,28.3,25.5,29.66,WSW,246,2.0,0.0,89,0.00,,OVC003,0.00,VWS V14.01,2013-02-14 10:09:00,
2013-02-14 05:14:00,28.3,25.5,29.66,WSW,246,2.0,0.0,89,0.00,,OVC003,0.00,VWS V14.01,2013-02-14 10:14:00,
2013-02-14 05:19:00,28.3,25.5,29.66,WSW,246,2.0,0.0,89,0.00,,OVC003,0.00,VWS V14.01,2013-02-14 10:19:00,
2013-02-14 05:24:00,28.3,25.5,29.66,WSW,246,2.0,0.0,89,0.00,,OVC003,0.00,VWS V14.01,2013-02-14 10:24:00,
2013-02-14 05:29:00,28.3,25.5,29.66,WSW,245,2.0,0.0,89,0.00,,OVC003,0.00,VWS V14.01,2013-02-14 10:29:00,
2013-02-14 05:34:00,28.2,25.4,29.66,WSW,246,2.0,0.0,89,0.00,,OVC003,0.00,VWS V14.01,2013-02-14 10:34:00,
2013-02-14 05:39:00,28.1,25.3,29.66,WSW,246,2.0,0.0,89,0.00,,OVC003,0.00,VWS V14.01,2013-02-14 10:39:00,
2013-02-14 05:44:00,28.0,25.2,29.66,WSW,245,2.0,0.0,89,0.00,,OVC003,0.00,VWS V14.01,2013-02-14 10:44:00,
2013-02-14 05:49:00,27.9,25.1,29.66,WSW,246,2.0,0.0,89,0.00,,OVC003,0.00,VWS V14.01,2013-02-14 10:49:00,
2013-02-14 05:54:00,27.9,25.1,29.66,WSW,246,2.0,0.0,89,0.00,,OVC003,0.00,VWS V14.01,2013-02-14 10:54:00,
2013-02-14 05:59:00,27.8,25.0,29.66,WSW,246,2.0,0.0,89,0.00,,OVC003,0.00,VWS V14.01,2013-02-14 10:59:00,
2013-02-14 06:04:00,27.8,25.0,29.66,WSW,246,2.0,0.0,89,0.00,,OVC003,0.00,VWS V14.01,2013-02-14 11:04:00,
2013-02-14 06:10:00,27.8,25.0,29.66,WSW,246,2.0,0.0,89,0.00,,OVC003,0.00,VWS V14.01,2013-02-14 11:10:00,
2013-02-14 06:15:00,27.8,25.0,29.66,WSW,246,2.0,0.0,89,0.00,,OVC003,0.00,VWS V14.01,2013-02-14 11:15:00,
2013-02-14 06:20:00,27.7,24.9,29.66,WSW,245,2.0,0.0,89,0.00,,OVC003,0.00,VWS V14.01,2013-02-14 11:20:00,
2013-02-14 06:25:00,27.7,25.2,29.66,WSW,245,2.0,0.0,90,0.00,,OVC003,0.00,VWS V14.01,2013-02-14 11:25:00,
2013-02-14 06:30:00,27.7,25.2,29.66,WSW,246,2.0,0.0,90,0.00,,OVC003,0.00,VWS V14.01,2013-02-14 11:30:00,
2013-02-14 06:35:00,27.8,25.2,29.66,WSW,246,2.0,0.0,90,0.00,,OVC003,0.00,VWS V14.01,2013-02-14 11:35:00,
2013-02-14 06:40:00,27.8,25.2,29.66,WSW,246,2.0,0.0,90,0.00,,OVC003,0.00,VWS V14.01,2013-02-14 11:40:00,
2013-02-14 06:45:00,27.8,25.2,29.66,WSW,246,2.0,0.0,90,0.00,,OVC003,0.00,VWS V14.01,2013-02-14 11:45:00,
2013-02-14 06:50:00,28.0,25.5,29.66,WSW,246,2.0,0.0,90,0.00,,OVC003,0.00,VWS V14.01,2013-02-14 11:50:00,
2013-02-14 06:55:00,28.2,25.6,29.66,WSW,246,2.0,0.0,90,0.00,,OVC003,0.00,VWS V14.01,2013-02-14 11:55:00,
2013-02-14 07:00:00,28.3,25.8,29.66,WSW,246,2.0,0.0,90,0.00,,OVC003,0.00,VWS V14.01,2013-02-14 12:00:00,
2013-02-14 07:05:00,28.4,25.9,29.66,WSW,246,2.0,0.0,90,0.00,,OVC003,0.00,VWS V14.01,2013-02-14 12:05:00,
2013-02-14 07:10:00,28.5,26.0,29.66,WSW,246,2.0,0.0,90,0.00,,OVC003,0.00,VWS V14.01,2013-02-14 12:10:00,
2013-02-14 07:15:00,28.5,26.0,29.66,WSW,246,2.0,0.0,90,0.00,,OVC003,0.00,VWS V14.01,2013-02-14 12:15:00,
2013-02-14 07:20:00,28.5,26.0,29.65,WSW,246,2.0,0.0,90,0.00,,OVC003,0.00,VWS V14.01,2013-02-14 12:20:00,
2013-02-14 07:25:00,28.5,26.0,29.65,WSW,246,2.0,0.0,90,0.00,,OVC003,0.00,VWS V14.01,2013-02-14 12:25:00,
2013-02-14 07:30:00,28.6,26.0,29.65,WSW,246,2.0,0.0,90,0.00,,OVC003,0.00,VWS V14.01,2013-02-14 12:30:00,
2013-02-14 07:35:00,28.7,26.1,29.66,WSW,246,2.0,0.0,90,0.00,,OVC003,0.00,VWS V14.01,2013-02-14 12:35:00,
2013-02-14 07:40:00,28.7,26.1,29.66,WSW,245,2.0,0.0,90,0.00,,OVC003,0.00,VWS V14.01,2013-02-14 12:40:00,
2013-02-14 07:45:00,28.7,26.1,29.66,WSW,246,2.0,0.0,90,0.00,,OVC003,0.00,VWS V14.01,2013-02-14 12:45:00,
2013-02-14 07:50:00,28.7,26.1,29.66,WSW,245,2.0,0.0,90,0.00,,OVC003,0.00,VWS V14.01,2013-02-14 12:50:00,
2013-02-14 07:55:00,28.8,26.2,29.66,WSW,245,2.0,0.0,90,0.00,,OVC003,0.00,VWS V14.01,2013-02-14 12:55:00,
2013-02-14 08:00:00,28.8,26.5,29.66,WSW,246,2.0,0.0,91,0.00,,OVC003,0.00,VWS V14.01,2013-02-14 13:00:00,
2013-02-14 08:05:00,28.9,26.6,29.66,WSW,246,2.0,0.0,91,0.00,,OVC003,0.00,VWS V14.01,2013-02-14 13:05:00,
2013-02-14 08:10:00,29.0,26.7,29.66,WSW,246,2.0,0.0,91,0.00,,OVC003,0.00,VWS V14.01,2013-02-14 13:10:00,
2013-02-14 08:15:00,29.0,26.7,29.66,WSW,246,2.0,0.0,91,0.00,,OVC003,0.00,VWS V14.01,2013-02-14 13:15:00,
2013-02-14 08:20:00,29.2,26.9,29.66,WSW,246,2.0,0.0,91,0.00,,OVC003,0.00,VWS V14.01,2013-02-14 13:20:00,
2013-02-14 08:25:00,29.4,27.1,29.66,WSW,246,2.0,0.0,91,0.00,,OVC003,0.00,VWS V14.01,2013-02-14 13:25:00,
2013-02-14 08:30:00,29.5,27.2,29.66,WSW,246,2.0,0.0,91,0.00,,OVC003,0.00,VWS V14.01,2013-02-14 13:30:00,
2013-02-14 08:35:00,29.8,27.5,29.66,WSW,246,2.0,0.0,91,0.00,,OVC003,0.00,VWS V14.01,2013-02-14 13:35:00,
2013-02-14 08:40:00,30.1,27.8,29.66,WSW,246,2.0,2.0,91,0.00,,OVC003,0.00,VWS V14.01,2013-02-14 13:40:00,
2013-02-14 08:45:00,30.4,28.1,29.66,WSW,246,2.0,2.0,91,0.00,,OVC003,0.00,VWS V14.01,2013-02-14 13:45:00,
2013-02-14 08:50:00,30.7,28.4,29.66,WSW,246,2.0,0.0,91,0.00,,OVC003,0.00,VWS V14.01,2013-02-14 13:50:00,
2013-02-14 08:55:00,31.0,28.7,29.66,WSW,246,2.0,2.0,91,0.00,,OVC003,0.00,VWS V14.01,2013-02-14 13:55:00,
2013-02-14 09:00:00,31.2,28.9,29.66,WSW,246,2.0,0.0,91,0.00,,OVC003,0.00,VWS V14.01,2013-02-14 14:00:00,
2013-02-14 09:05:00,31.3,29.2,29.66,WSW,246,2.0,2.0,92,0.00,,OVC003,0.00,VWS V14.01,2013-02-14 14:05:00,
2013-02-14 09:10:00,31.5,29.2,29.66,WSW,246,2.0,0.0,91,0.00,,OVC003,0.00,VWS V14.01,2013-02-14 14:10:00,
2013-02-14 09:15:00,31.5,29.2,29.66,WSW,246,2.0,0.0,91,0.00,,OVC003,0.00,VWS V14.01,2013-02-14 14:15:00,
2013-02-14 09:20:00,31.7,29.4,29.65,WSW,246,2.0,0.0,91,0.00,,OVC003,0.00,VWS V14.01,2013-02-14 14:20:00,
2013-02-14 09:25:00,31.9,29.8,29.65,WSW,246,2.0,0.0,92,0.00,,OVC003,0.00,VWS V14.01,2013-02-14 14:25:00,
2013-02-14 09:30:00,32.0,29.9,29.65,ESE,123,3.0,3.0,92,0.00,,OVC003,0.00,VWS V14.01,2013-02-14 14:30:00,
2013-02-14 09:35:00,32.1,30.0,29.65,SE,124,2.0,0.0,92,0.00,,OVC003,0.00,VWS V14.01,2013-02-14 14:35:00,
2013-02-14 09:40:00,32.2,30.1,29.65,SE,134,2.0,2.0,92,0.00,,OVC003,0.00,VWS V14.01,2013-02-14 14:40:00,
2013-02-14 09:45:00,32.2,30.1,29.65,SE,133,3.0,3.0,92,0.00,,OVC003,0.00,VWS V14.01,2013-02-14 14:45:00,
2013-02-14 09:50:00,32.3,30.2,29.65,SE,134,2.0,2.0,92,0.00,,OVC003,0.00,VWS V14.01,2013-02-14 14:50:00,
2013-02-14 09:56:00,32.3,30.2,29.65,SE,143,4.0,4.0,92,0.00,,OVC003,0.00,VWS V14.01,2013-02-14 14:56:00,
2013-02-14 10:01:00,32.4,30.3,29.64,SE,143,2.0,2.0,92,0.00,,OVC003,0.00,VWS V14.01,2013-02-14 15:01:00,
2013-02-14 10:06:00,32.5,30.4,29.64,SE,132,3.0,3.0,92,0.00,,OVC003,0.00,VWS V14.01,2013-02-14 15:06:00,
2013-02-14 10:11:00,32.5,30.4,29.64,SSE,155,3.0,3.0,92,0.00,,OVC003,0.00,VWS V14.01,2013-02-14 15:11:00,
2013-02-14 10:16:00,32.5,30.4,29.63,SSE,163,2.0,3.0,92,0.00,,OVC003,0.00,VWS V14.01,2013-02-14 15:16:00,
2013-02-14 10:21:00,32.6,30.5,29.63,SSE,163,2.0,2.0,92,0.00,,OVC003,0.00,VWS V14.01,2013-02-14 15:21:00,
2013-02-14 10:26:00,32.7,30.6,29.63,SSE,163,3.0,3.0,92,0.00,,OVC003,0.00,VWS V14.01,2013-02-14 15:26:00,
2013-02-14 10:31:00,32.9,30.8,29.62,SSE,163,2.0,2.0,92,0.00,,OVC003,0.00,VWS V14.01,2013-02-14 15:31:00,
2013-02-14 10:36:00,32.9,30.8,29.62,SSE,163,3.0,3.0,92,0.00,,OVC003,0.00,VWS V14.01,2013-02-14 15:36:00,
2013-02-14 10:41:00,33.0,30.9,29.62,SE,141,2.0,3.0,92,0.00,,OVC003,0.00,VWS V14.01,2013-02-14 15:41:00,
2013-02-14 10:46:00,33.1,31.0,29.61,SE,141,2.0,2.0,92,0.00,,OVC003,0.00,VWS V14.01,2013-02-14 15:46:00,
2013-02-14 10:51:00,33.3,31.2,29.61,SE,141,3.0,3.0,92,0.01,,OVC003,0.01,VWS V14.01,2013-02-14 15:51:00,
2013-02-14 10:56:00,33.4,31.3,29.61,SE,141,3.0,3.0,92,0.01,,OVC003,0.01,VWS V14.01,2013-02-14 15:56:00,
2013-02-14 11:01:00,33.5,31.7,29.60,SE,141,4.0,4.0,93,0.01,,OVC003,0.01,VWS V14.01,2013-02-14 16:01:00,
2013-02-14 11:06:00,33.8,32.0,29.60,SSE,151,4.0,4.0,93,0.01,,OVC003,0.01,VWS V14.01,2013-02-14 16:06:00,
2013-02-14 11:11:00,33.9,32.1,29.60,SSE,153,2.0,3.0,93,0.01,,OVC003,0.01,VWS V14.01,2013-02-14 16:11:00,
2013-02-14 11:16:00,34.0,31.9,29.59,SSE,147,4.0,4.0,92,0.01,,OVC003,0.01,VWS V14.01,2013-02-14 16:16:00,
2013-02-14 11:21:00,34.2,32.1,29.59,SSE,148,2.0,2.0,92,0.02,,OVC003,0.02,VWS V14.01,2013-02-14 16:21:00,
2013-02-14 11:26:00,34.3,32.5,29.59,SSE,159,3.0,3.0,93,0.03,,OVC003,0.03,VWS V14.01,2013-02-14 16:26:00,
2013-02-14 11:31:00,34.4,32.6,29.59,South,174,5.0,5.0,93,0.03,,OVC003,0.03,VWS V14.01,2013-02-14 16:31:00,
2013-02-14 11:36:00,34.4,32.6,29.59,SSE,149,2.0,3.0,93,0.03,,OVC003,0.03,VWS V14.01,2013-02-14 16:36:00,
2013-02-14 11:41:00,34.4,32.6,29.59,SW,233,2.0,2.0,93,0.03,,OVC003,0.03,VWS V14.01,2013-02-14 16:41:00,
2013-02-14 11:46:00,34.4,32.3,29.59,SW,233,2.0,0.0,92,0.03,,OVC003,0.03,VWS V14.01,2013-02-14 16:46:00,
2013-02-14 11:51:00,34.6,32.5,29.59,South,187,4.0,4.0,92,0.03,,OVC003,0.03,VWS V14.01,2013-02-14 16:51:00,
2013-02-14 11:56:00,34.9,33.1,29.59,SSE,157,2.0,3.0,93,0.02,,OVC003,0.03,VWS V14.01,2013-02-14 16:56:00,
2013-02-14 12:01:00,35.3,33.5,29.58,SSE,157,2.0,2.0,93,0.02,,OVC003,0.03,VWS V14.01,2013-02-14 17:01:00,
2013-02-14 12:06:00,36.0,34.2,29.58,SSE,157,4.0,4.0,93,0.02,,OVC003,0.03,VWS V14.01,2013-02-14 17:06:00,
2013-02-14 12:11:00,36.4,34.6,29.58,SSW,195,2.0,4.0,93,0.02,,OVC003,0.03,VWS V14.01,2013-02-14 17:11:00,
2013-02-14 12:16:00,36.6,34.8,29.58,SSE,168,2.0,5.0,93,0.02,,OVC003,0.03,VWS V14.01,2013-02-14 17:16:00,
2013-02-14 12:21:00,36.6,34.5,29.58,SSE,147,4.0,4.0,92,0.02,,OVC003,0.03,VWS V14.01,2013-02-14 17:21:00,
2013-02-14 12:26:00,36.6,34.5,29.58,SSE,157,2.0,6.0,92,0.01,,OVC003,0.03,VWS V14.01,2013-02-14 17:26:00,
2013-02-14 12:31:00,36.5,34.1,29.58,SW,232,6.0,6.0,91,0.00,,OVC003,0.03,VWS V14.01,2013-02-14 17:31:00,
2013-02-14 12:36:00,36.5,33.8,29.58,SE,128,5.0,5.0,90,0.00,,OVC003,0.03,VWS V14.01,2013-02-14 17:36:00,
2013-02-14 12:41:00,36.5,33.8,29.58,SW,216,4.0,4.0,90,0.00,,OVC003,0.03,VWS V14.01,2013-02-14 17:41:00,
2013-02-14 12:46:00,36.6,34.0,29.58,SE,140,2.0,3.0,90,0.00,,OVC003,0.03,VWS V14.01,2013-02-14 17:46:00,
2013-02-14 12:51:00,36.6,33.7,29.58,SSW,195,2.0,3.0,89,0.00,,OVC003,0.03,VWS V14.01,2013-02-14 17:51:00,
2013-02-14 12:56:00,36.8,33.9,29.58,SSW,197,2.0,3.0,89,0.00,,OVC003,0.03,VWS V14.01,2013-02-14 17:56:00,
2013-02-14 13:01:00,37.0,34.1,29.57,SSW,197,2.0,2.0,89,0.00,,OVC003,0.03,VWS V14.01,2013-02-14 18:01:00,
2013-02-14 13:07:00,37.1,33.9,29.57,South,191,2.0,0.0,88,0.00,,OVC003,0.03,VWS V14.01,2013-02-14 18:07:00,
2013-02-14 13:12:00,37.2,34.0,29.57,SSE,156,2.0,2.0,88,0.00,,OVC003,0.03,VWS V14.01,2013-02-14 18:12:00,
2013-02-14 13:17:00,37.3,34.1,29.57,South,178,3.0,3.0,88,0.00,,OVC003,0.03,VWS V14.01,2013-02-14 18:17:00,
2013-02-14 13:22:00,37.4,34.2,29.57,South,178,2.0,2.0,88,0.00,,OVC003,0.03,VWS V14.01,2013-02-14 18:22:00,
2013-02-14 13:27:00,37.6,34.1,29.57,SSE,149,2.0,0.0,87,0.00,,OVC003,0.03,VWS V14.01,2013-02-14 18:27:00,
2013-02-14 13:32:00,37.9,34.4,29.56,SSE,166,3.0,3.0,87,0.00,,OVC003,0.03,VWS V14.01,2013-02-14 18:32:00,
2013-02-14 13:37:00,38.2,34.7,29.56,South,176,3.0,3.0,87,0.00,,OVC003,0.03,VWS V14.01,2013-02-14 18:37:00,
2013-02-14 13:42:00,38.5,34.4,29.56,SSW,199,3.0,3.0,85,0.00,,OVC003,0.03,VWS V14.01,2013-02-14 18:42:00,
2013-02-14 13:47:00,38.9,34.5,29.56,SW,214,4.0,4.0,84,0.00,,OVC003,0.03,VWS V14.01,2013-02-14 18:47:00,
2013-02-14 13:52:00,39.3,34.6,29.56,SSW,197,5.0,5.0,83,0.00,,OVC003,0.03,VWS V14.01,2013-02-14 18:52:00,
2013-02-14 13:57:00,39.6,34.3,29.56,WSW,252,7.0,7.0,81,0.00,,OVC003,0.03,VWS V14.01,2013-02-14 18:57:00,
2013-02-14 14:02:00,39.8,34.1,29.55,South,190,4.0,4.0,80,0.00,,OVC003,0.03,VWS V14.01,2013-02-14 19:02:00,
2013-02-14 14:07:00,39.9,34.2,29.55,SSW,205,5.0,5.0,80,0.00,,OVC003,0.03,VWS V14.01,2013-02-14 19:07:00,
2013-02-14 14:12:00,39.8,33.8,29.55,SSW,211,3.0,3.0,79,0.00,,OVC003,0.03,VWS V14.01,2013-02-14 19:12:00,
2013-02-14 14:17:00,39.8,33.8,29.55,SSW,212,2.0,0.0,79,0.00,,OVC003,0.03,VWS V14.01,2013-02-14 19:17:00,
2013-02-14 14:22:00,39.8,33.8,29.55,SSW,203,6.0,6.0,79,0.00,,OVC003,0.03,VWS V14.01,2013-02-14 19:22:00,
2013-02-14 14:27:00,39.8,33.8,29.55,SW,219,5.0,5.0,79,0.00,,OVC003,0.03,VWS V14.01,2013-02-14 19:27:00,
2013-02-14 14:32:00,39.7,33.7,29.55,South,179,3.0,3.0,79,0.00,,OVC003,0.03,VWS V14.01,2013-02-14 19:32:00,
2013-02-14 14:37:00,39.6,33.6,29.55,WSW,243,6.0,6.0,79,0.00,,OVC003,0.03,VWS V14.01,2013-02-14 19:37:00,
2013-02-14 14:42:00,39.4,33.4,29.55,SW,220,5.0,5.0,79,0.00,,OVC003,0.03,VWS V14.01,2013-02-14 19:42:00,
2013-02-14 14:47:00,39.3,33.3,29.55,SW,217,7.0,9.0,79,0.00,,OVC003,0.03,VWS V14.01,2013-02-14 19:47:00,
2013-02-14 14:52:00,39.2,33.2,29.55,SSW,197,3.0,4.0,79,0.00,,OVC003,0.03,VWS V14.01,2013-02-14 19:52:00,
2013-02-14 14:57:00,39.2,33.2,29.55,SW,220,6.0,7.0,79,0.00,,OVC003,0.03,VWS V14.01,2013-02-14 19:57:00,
2013-02-14 15:02:00,39.3,33.3,29.55,South,182,6.0,6.0,79,0.00,,OVC003,0.03,VWS V14.01,2013-02-14 20:02:00,
2013-02-14 15:07:00,39.3,33.3,29.55,SW,214,3.0,4.0,79,0.00,,OVC003,0.03,VWS V14.01,2013-02-14 20:07:00,
2013-02-14 15:12:00,39.2,33.2,29.55,South,189,6.0,6.0,79,0.00,,OVC003,0.03,VWS V14.01,2013-02-14 20:12:00,
2013-02-14 15:17:00,39.1,33.2,29.55,West,267,7.0,7.0,79,0.00,,OVC003,0.03,VWS V14.01,2013-02-14 20:17:00,
2013-02-14 15:22:00,39.0,33.0,29.55,South,189,5.0,5.0,79,0.00,,OVC003,0.03,VWS V14.01,2013-02-14 20:22:00,
2013-02-14 15:27:00,38.9,33.0,29.55,WSW,241,3.0,3.0,79,0.00,,OVC003,0.03,VWS V14.01,2013-02-14 20:27:00,
2013-02-14 15:32:00,38.7,33.1,29.56,SSW,193,5.0,5.0,80,0.00,,OVC003,0.03,VWS V14.01,2013-02-14 20:32:00,
2013-02-14 15:37:00,38.6,33.0,29.56,WSW,244,7.0,7.0,80,0.00,,OVC003,0.03,VWS V14.01,2013-02-14 20:37:00,
2013-02-14 15:42:00,38.6,33.0,29.56,SW,227,6.0,6.0,80,0.00,,OVC003,0.03,VWS V14.01,2013-02-14 20:42:00,
2013-02-14 15:47:00,38.4,33.1,29.56,SSE,155,2.0,0.0,81,0.00,,OVC003,0.03,VWS V14.01,2013-02-14 20:47:00,
2013-02-14 15:52:00,38.1,33.1,29.56,SSW,205,3.0,3.0,82,0.00,,OVC003,0.03,VWS V14.01,2013-02-14 20:52:00,
2013-02-14 15:57:00,37.8,33.1,29.56,SW,236,4.0,4.0,83,0.00,,OVC003,0.03,VWS V14.01,2013-02-14 20:57:00,
2013-02-14 16:02:00,37.6,33.2,29.57,SW,230,3.0,5.0,84,0.00,,OVC003,0.03,VWS V14.01,2013-02-14 21:02:00,
2013-02-14 16:07:00,37.4,33.3,29.57,SW,226,4.0,6.0,85,0.00,,OVC003,0.03,VWS V14.01,2013-02-14 21:07:00,
2013-02-14 16:12:00,37.3,33.5,29.57,South,190,3.0,3.0,86,0.00,,OVC003,0.03,VWS V14.01,2013-02-14 21:12:00,
2013-02-14 16:17:00,37.1,33.3,29.57,SW,220,4.0,5.0,86,0.00,,OVC003,0.03,VWS V14.01,2013-02-14 21:17:00,
2013-02-14 16:22:00,37.1,33.3,29.57,West,260,3.0,4.0,86,0.00,,OVC003,0.03,VWS V14.01,2013-02-14 21:22:00,
2013-02-14 16:27:00,37.0,33.5,29.57,SW,217,5.0,5.0,87,0.00,,OVC003,0.03,VWS V14.01,2013-02-14 21:27:00,
2013-02-14 16:32:00,37.0,33.5,29.56,West,267,5.0,5.0,87,0.00,,OVC003,0.03,VWS V14.01,2013-02-14 21:32:00,
2013-02-14 16:37:00,36.9,33.4,29.56,South,191,5.0,5.0,87,0.00,,OVC003,0.03,VWS V14.01,2013-02-14 21:37:00,
2013-02-14 16:42:00,37.0,33.2,29.56,SW,215,4.0,4.0,86,0.00,,OVC003,0.03,VWS V14.01,2013-02-14 21:42:00,
2013-02-14 16:47:00,37.0,33.2,29.56,SSW,206,3.0,3.0,86,0.00,,OVC003,0.03,VWS V14.01,2013-02-14 21:47:00,
2013-02-14 16:52:00,37.0,33.2,29.56,SW,216,4.0,5.0,86,0.00,,OVC003,0.03,VWS V14.01,2013-02-14 21:52:00,
2013-02-14 16:58:00,37.0,33.2,29.56,SSE,160,5.0,5.0,86,0.00,,OVC003,0.03,VWS V14.01,2013-02-14 21:58:00,
2013-02-14 17:03:00,37.0,33.2,29.57,SSW,193,3.0,6.0,86,0.00,,OVC003,0.03,VWS V14.01,2013-02-14 22:03:00,
2013-02-14 17:08:00,36.9,33.1,29.57,WNW,284,6.0,6.0,86,0.00,,OVC003,0.03,VWS V14.01,2013-02-14 22:08:00,
2013-02-14 17:13:00,36.6,32.8,29.57,WSW,240,2.0,5.0,86,0.01,,OVC003,0.04,VWS V14.01,2013-02-14 22:13:00,
2013-02-14 17:18:00,36.4,32.9,29.57,WSW,243,2.0,3.0,87,0.01,,OVC003,0.04,VWS V14.01,2013-02-14 22:18:00,
2013-02-14 17:23:00,36.2,32.7,29.57,SSW,196,3.0,6.0,87,0.01,,OVC003,0.04,VWS V14.01,2013-02-14 22:23:00,
2013-02-14 17:28:00,36.0,32.5,29.57,SSW,207,6.0,6.0,87,0.01,,OVC003,0.04,VWS V14.01,2013-02-14 22:28:00,
2013-02-14 17:33:00,35.8,32.6,29.57,SSW,212,4.0,4.0,88,0.01,,OVC003,0.04,VWS V14.01,2013-02-14 22:33:00,
2013-02-14 17:38:00,35.6,32.4,29.57,SW,236,5.0,5.0,88,0.02,,OVC003,0.05,VWS V14.01,2013-02-14 22:38:00,
2013-02-14 17:43:00,35.5,32.3,29.57,South,189,4.0,6.0,88,0.02,,OVC003,0.05,VWS V14.01,2013-02-14 22:43:00,
2013-02-14 17:48:00,35.3,32.1,29.57,SSW,194,4.0,6.0,88,0.02,,OVC003,0.05,VWS V14.01,2013-02-14 22:48:00,
2013-02-14 17:53:00,35.2,32.3,29.57,SSW,213,6.0,6.0,89,0.03,,OVC003,0.06,VWS V14.01,2013-02-14 22:53:00,
2013-02-14 17:58:00,35.1,32.2,29.57,SW,224,6.0,6.0,89,0.03,,OVC003,0.06,VWS V14.01,2013-02-14 22:58:00,
2013-02-14 18:03:00,35.0,32.1,29.58,SSW,209,6.0,6.0,89,0.03,,OVC003,0.06,VWS V14.01,2013-02-14 23:03:00,
2013-02-14 18:08:00,34.9,32.0,29.58,West,268,6.0,6.0,89,0.03,,OVC003,0.06,VWS V14.01,2013-02-14 23:08:00,
2013-02-14 18:13:00,34.9,32.0,29.58,SW,220,5.0,5.0,89,0.02,,OVC003,0.06,VWS V14.01,2013-02-14 23:13:00,
2013-02-14 18:18:00,34.8,32.2,29.58,SSW,198,6.0,6.0,90,0.02,,OVC003,0.06,VWS V14.01,2013-02-14 23:18:00,
2013-02-14 18:23:00,34.8,32.2,29.58,WSW,244,5.0,6.0,90,0.02,,OVC003,0.06,VWS V14.01,2013-02-14 23:23:00,
2013-02-14 18:28:00,34.8,32.2,29.58,WSW,241,3.0,3.0,90,0.02,,OVC003,0.06,VWS V14.01,2013-02-14 23:28:00,
2013-02-14 18:33:00,34.8,32.2,29.59,SW,234,2.0,3.0,90,0.02,,OVC003,0.06,VWS V14.01,2013-02-14 23:33:00,
2013-02-14 18:38:00,34.7,32.1,29.59,West,271,2.0,2.0,90,0.01,,OVC003,0.06,VWS V14.01,2013-02-14 23:38:00,
2013-02-14 18:43:00,34.7,32.1,29.59,SW,234,3.0,4.0,90,0.01,,OVC003,0.06,VWS V14.01,2013-02-14 23:43:00,
2013-02-14 18:48:00,34.6,32.0,29.60,SW,221,5.0,5.0,90,0.01,,OVC003,0.06,VWS V14.01,2013-02-14 23:48:00,
2013-02-14 18:53:00,34.5,31.9,29.60,WSW,258,2.0,2.0,90,0.02,,OVC003,0.07,VWS V14.01,2013-02-14 23:53:00,
2013-02-14 18:58:00,34.4,31.8,29.60,SW,217,2.0,4.0,90,0.01,,OVC003,0.07,VWS V14.01,2013-02-14 23:58:00,
2013-02-14 19:03:00,34.4,31.8,29.60,WSW,245,5.0,5.0,90,0.01,,OVC003,0.07,VWS V14.01,2013-02-15 00:03:00,
2013-02-14 19:08:00,34.4,31.8,29.60,SW,221,5.0,5.0,90,0.01,,OVC003,0.07,VWS V14.01,2013-02-15 00:08:00,
2013-02-14 19:13:00,34.4,31.8,29.60,SW,231,4.0,5.0,90,0.01,,OVC003,0.07,VWS V14.01,2013-02-15 00:13:00,
2013-02-14 19:18:00,34.4,32.0,29.61,West,269,5.0,5.0,91,0.01,,OVC003,0.07,VWS V14.01,2013-02-15 00:18:00,
2013-02-14 19:23:00,34.4,32.0,29.61,WSW,241,6.0,6.0,91,0.01,,OVC003,0.07,VWS V14.01,2013-02-15 00:23:00,
2013-02-14 19:28:00,34.4,32.0,29.61,West,276,2.0,3.0,91,0.01,,OVC003,0.07,VWS V14.01,2013-02-15 00:28:00,
2013-02-14 19:33:00,34.4,32.0,29.61,SW,221,4.0,6.0,91,0.01,,OVC003,0.07,VWS V14.01,2013-02-15 00:33:00,
2013-02-14 19:38:00,34.4,32.0,29.61,WSW,245,2.0,3.0,91,0.01,,OVC003,0.07,VWS V14.01,2013-02-15 00:38:00,
2013-02-14 19:43:00,34.4,32.0,29.61,SSW,206,3.0,5.0,91,0.01,,OVC003,0.07,VWS V14.01,2013-02-15 00:43:00,
2013-02-14 19:48:00,34.4,32.0,29.61,West,270,4.0,6.0,91,0.01,,OVC003,0.07,VWS V14.01,2013-02-15 00:48:00,
2013-02-14 19:53:00,34.4,32.0,29.61,NNW,341,5.0,5.0,91,0.01,,OVC003,0.07,VWS V14.01,2013-02-15 00:53:00,
2013-02-14 19:58:00,34.4,32.0,29.61,South,180,5.0,6.0,91,0.01,,OVC003,0.08,VWS V14.01,2013-02-15 00:58:00,
2013-02-14 20:03:00,34.4,32.0,29.62,West,268,3.0,4.0,91,0.01,,OVC003,0.08,VWS V14.01,2013-02-15 01:03:00,
2013-02-14 20:08:00,34.4,32.0,29.62,WNW,298,2.0,3.0,91,0.01,,OVC003,0.08,VWS V14.01,2013-02-15 01:08:00,
2013-02-14 20:13:00,34.3,32.0,29.62,SW,230,2.0,5.0,91,0.01,,OVC003,0.08,VWS V14.01,2013-02-15 01:13:00,
2013-02-14 20:18:00,34.3,32.0,29.62,SSW,206,5.0,5.0,91,0.01,,OVC003,0.08,VWS V14.01,2013-02-15 01:18:00,
2013-02-14 20:23:00,34.3,32.0,29.62,SW,218,2.0,3.0,91,0.02,,OVC003,0.09,VWS V14.01,2013-02-15 01:23:00,
2013-02-14 20:28:00,34.2,32.1,29.62,SW,234,2.0,8.0,92,0.02,,OVC003,0.09,VWS V14.01,2013-02-15 01:28:00,
2013-02-14 20:33:00,34.2,31.9,29.63,SW,232,2.0,2.0,91,0.02,,OVC003,0.09,VWS V14.01,2013-02-15 01:33:00,
2013-02-14 20:38:00,34.2,32.1,29.63,West,265,5.0,5.0,92,0.02,,OVC003,0.09,VWS V14.01,2013-02-15 01:38:00,
2013-02-14 20:43:00,34.2,32.1,29.63,WSW,252,5.0,6.0,92,0.02,,OVC003,0.09,VWS V14.01,2013-02-15 01:43:00,
2013-02-14 20:48:00,34.1,32.0,29.64,WSW,237,4.0,9.0,92,0.02,,OVC003,0.09,VWS V14.01,2013-02-15 01:48:00,
2013-02-14 20:53:00,34.1,32.0,29.64,SW,229,6.0,6.0,92,0.02,,OVC003,0.09,VWS V14.01,2013-02-15 01:53:00,
2013-02-14 20:59:00,33.9,31.8,29.64,NW,307,5.0,12.0,92,0.01,,OVC003,0.09,VWS V14.01,2013-02-15 01:59:00,
2013-02-14 21:04:00,33.8,31.7,29.65,WSW,258,6.0,6.0,92,0.01,,OVC003,0.09,VWS V14.01,2013-02-15 02:04:00,
2013-02-14 21:09:00,33.7,31.6,29.65,WNW,282,2.0,4.0,92,0.01,,OVC003,0.09,VWS V14.01,2013-02-15 02:09:00,
2013-02-14 21:14:00,33.6,31.5,29.65,WNW,284,5.0,5.0,92,0.01,,OVC003,0.09,VWS V14.01,2013-02-15 02:14:00,
2013-02-14 21:19:00,33.4,31.1,29.66,WNW,302,6.0,6.0,91,0.01,,OVC003,0.09,VWS V14.01,2013-02-15 02:19:00,
2013-02-14 21:24:00,33.0,30.7,29.66,SSW,209,2.0,7.0,91,0.01,,OVC003,0.09,VWS V14.01,2013-02-15 02:24:00,
2013-02-14 21:29:00,32.9,30.3,29.66,SW,227,3.0,5.0,90,0.00,,OVC003,0.09,VWS V14.01,2013-02-15 02:29:00,
2013-02-14 21:34:00,32.7,30.1,29.68,WNW,293,4.0,10.0,90,0.00,,OVC003,0.09,VWS V14.01,2013-02-15 02:34:00,
2013-02-14 21:39:00,32.6,30.0,29.68,NNW,328,4.0,5.0,90,0.00,,OVC003,0.09,VWS V14.01,2013-02-15 02:39:00,
2013-02-14 21:44:00,32.5,29.6,29.68,NW,312,3.0,7.0,89,0.00,,OVC003,0.09,VWS V14.01,2013-02-15 02:44:00,
2013-02-14 21:49:00,32.3,29.1,29.69,WNW,295,7.0,7.0,88,0.00,,OVC003,0.09,VWS V14.01,2013-02-15 02:49:00,
2013-02-14 21:54:00,32.2,28.8,29.69,ESE,108,3.0,6.0,87,0.00,,OVC003,0.09,VWS V14.01,2013-02-15 02:54:00,
2013-02-14 21:59:00,32.1,28.7,29.69,North,350,4.0,4.0,87,0.00,,OVC003,0.09,VWS V14.01,2013-02-15 02:59:00,
2013-02-14 22:04:00,32.0,28.6,29.71,WSW,250,3.0,6.0,87,0.00,,OVC003,0.09,VWS V14.01,2013-02-15 03:04:00,
2013-02-14 22:09:00,31.9,28.5,29.71,West,260,7.0,7.0,87,0.00,,OVC003,0.09,VWS V14.01,2013-02-15 03:09:00,
2013-02-14 22:14:00,31.8,28.7,29.71,SW,236,4.0,4.0,88,0.00,,OVC003,0.09,VWS V14.01,2013-02-15 03:14:00,
2013-02-14 22:19:00,31.7,28.6,29.72,NW,317,3.0,7.0,88,0.00,,OVC003,0.09,VWS V14.01,2013-02-15 03:19:00,
2013-02-14 22:24:00,31.5,28.6,29.72,WNW,290,5.0,7.0,89,0.00,,OVC003,0.09,VWS V14.01,2013-02-15 03:24:00,
2013-02-14 22:29:00,31.1,28.2,29.72,SW,221,7.0,7.0,89,0.00,,OVC003,0.09,VWS V14.01,2013-02-15 03:29:00,
2013-02-14 22:34:00,30.8,28.0,29.73,NNW,327,5.0,5.0,89,0.00,,OVC003,0.09,VWS V14.01,2013-02-15 03:34:00,
2013-02-14 22:39:00,30.2,27.4,29.73,NNW,330,4.0,9.0,89,0.00,,OVC003,0.09,VWS V14.01,2013-02-15 03:39:00,
2013-02-14 22:44:00,29.7,26.6,29.73,East,97,2.0,14.0,88,0.00,,OVC003,0.09,VWS V14.01,2013-02-15 03:44:00,
2013-02-14 22:49:00,29.4,26.3,29.74,West,276,3.0,9.0,88,0.00,,OVC003,0.09,VWS V14.01,2013-02-15 03:49:00,
2013-02-14 22:54:00,29.3,25.9,29.74,West,273,2.0,3.0,87,0.00,,OVC003,0.09,VWS V14.01,2013-02-15 03:54:00,
2013-02-14 22:59:00,29.2,25.5,29.74,SSE,147,2.0,7.0,86,0.00,,OVC003,0.09,VWS V14.01,2013-02-15 03:59:00,
2013-02-14 23:04:00,29.2,25.3,29.76,West,278,6.0,6.0,85,0.00,,OVC003,0.09,VWS V14.01,2013-02-15 04:04:00,
2013-02-14 23:09:00,29.3,25.4,29.76,North,9,5.0,6.0,85,0.00,,OVC003,0.09,VWS V14.01,2013-02-15 04:09:00,
2013-02-14 23:14:00,29.3,24.8,29.76,North,1,3.0,6.0,83,0.00,,OVC003,0.09,VWS V14.01,2013-02-15 04:14:00,
2013-02-14 23:19:00,29.4,24.9,29.77,South,179,5.0,5.0,83,0.00,,OVC003,0.09,VWS V14.01,2013-02-15 04:19:00,
2013-02-14 23:24:00,29.4,24.9,29.77,NNW,332,5.0,11.0,83,0.00,,OVC003,0.09,VWS V14.01,2013-02-15 04:24:00,
2013-02-14 23:29:00,29.4,24.9,29.77,WNW,295,5.0,7.0,83,0.00,,OVC003,0.09,VWS V14.01,2013-02-15 04:29:00,
2013-02-14 23:34:00,29.4,24.6,29.78,West,268,6.0,10.0,82,0.00,,OVC003,0.09,VWS V14.01,2013-02-15 04:34:00,
2013-02-14 23:39:00,29.3,24.2,29.78,NNW,327,5.0,7.0,81,0.00,,OVC003,0.09,VWS V14.01,2013-02-15 04:39:00,
2013-02-14 23:44:00,29.2,23.8,29.78,ENE,67,2.0,5.0,80,0.00,,OVC003,0.09,VWS V14.01,2013-02-15 04:44:00,
2013-02-14 23:49:00,29.1,23.7,29.78,WSW,255,6.0,6.0,80,0.00,,OVC003,0.09,VWS V14.01,2013-02-15 04:49:00,
2013-02-14 23:55:00,29.0,23.6,29.78,SW,236,6.0,6.0,80,0.00,,OVC003,0.09,VWS V14.01,2013-02-15 04:55:00,